sensor_id;sensor_type;location;lat;lon;timestamp;temperature;humidity
31619;DHT22;18230;51.502;7.108;2022-09-17T00:02:16;12.20;99.90
31619;DHT22;18230;51.502;7.108;2022-09-17T00:07:17;12.10;99.90
31619;DHT22;18230;51.502;7.108;2022-09-17T00:12:18;12.00;99.90
31619;DHT22;18230;51.502;7.108;2022-09-17T00:17:18;12.00;99.90
31619;DHT22;18230;51.502;7.108;2022-09-17T00:22:19;12.00;99.90
31619;DHT22;18230;51.502;7.108;2022-09-17T00:27:23;11.90;99.90
31619;DHT22;18230;51.502;7.108;2022-09-17T00:32:24;11.80;99.90
31619;DHT22;18230;51.502;7.108;2022-09-17T00:37:26;11.80;99.90
31619;DHT22;18230;51.502;7.108;2022-09-17T00:42:27;11.80;99.90
31619;DHT22;18230;51.502;7.108;2022-09-17T00:47:31;11.80;99.90
31619;DHT22;18230;51.502;7.108;2022-09-17T00:52:38;11.80;99.90
31619;DHT22;18230;51.502;7.108;2022-09-17T00:57:43;11.80;99.90
31619;DHT22;18230;51.502;7.108;2022-09-17T01:02:45;11.80;99.90
31619;DHT22;18230;51.502;7.108;2022-09-17T01:07:57;11.70;99.90
31619;DHT22;18230;51.502;7.108;2022-09-17T01:13:48;11.70;99.90
31619;DHT22;18230;51.502;7.108;2022-09-17T01:24:29;11.60;99.90
31619;DHT22;18230;51.502;7.108;2022-09-17T01:29:54;11.50;99.90
31619;DHT22;18230;51.502;7.108;2022-09-17T01:35:04;11.40;99.90
31619;DHT22;18230;51.502;7.108;2022-09-17T01:40:33;11.30;99.90
31619;DHT22;18230;51.502;7.108;2022-09-17T01:45:47;11.40;99.90
31619;DHT22;18230;51.502;7.108;2022-09-17T01:51:08;11.40;99.90
31619;DHT22;18230;51.502;7.108;2022-09-17T01:56:12;11.40;99.90
31619;DHT22;18230;51.502;7.108;2022-09-17T02:01:16;11.50;99.90
31619;DHT22;18230;51.502;7.108;2022-09-17T02:06:23;11.50;99.90
31619;DHT22;18230;51.502;7.108;2022-09-17T02:11:27;11.60;99.90
31619;DHT22;18230;51.502;7.108;2022-09-17T02:16:33;11.50;99.90
31619;DHT22;18230;51.502;7.108;2022-09-17T02:21:53;11.60;99.90
31619;DHT22;18230;51.502;7.108;2022-09-17T02:32:07;11.50;99.90
31619;DHT22;18230;51.502;7.108;2022-09-17T02:37:08;11.50;99.90
31619;DHT22;18230;51.502;7.108;2022-09-17T02:42:14;11.50;99.90
31619;DHT22;18230;51.502;7.108;2022-09-17T02:58:03;11.50;99.90
31619;DHT22;18230;51.502;7.108;2022-09-17T03:03:16;11.60;99.90
31619;DHT22;18230;51.502;7.108;2022-09-17T03:08:29;11.50;99.90
31619;DHT22;18230;51.502;7.108;2022-09-17T03:13:32;11.50;99.90
31619;DHT22;18230;51.502;7.108;2022-09-17T03:18:33;11.50;99.90
31619;DHT22;18230;51.502;7.108;2022-09-17T03:23:34;11.40;99.90
31619;DHT22;18230;51.502;7.108;2022-09-17T03:28:35;11.40;99.90
31619;DHT22;18230;51.502;7.108;2022-09-17T03:33:38;11.40;99.90
31619;DHT22;18230;51.502;7.108;2022-09-17T03:38:42;11.50;99.90
31619;DHT22;18230;51.502;7.108;2022-09-17T03:43:43;11.50;99.90
31619;DHT22;18230;51.502;7.108;2022-09-17T03:48:44;11.50;99.90
31619;DHT22;18230;51.502;7.108;2022-09-17T03:53:47;11.50;99.90
31619;DHT22;18230;51.502;7.108;2022-09-17T03:58:51;11.50;99.90
31619;DHT22;18230;51.502;7.108;2022-09-17T04:03:54;11.50;99.90
31619;DHT22;18230;51.502;7.108;2022-09-17T04:08:55;11.40;99.90
31619;DHT22;18230;51.502;7.108;2022-09-17T04:13:56;11.40;99.90
31619;DHT22;18230;51.502;7.108;2022-09-17T04:18:57;11.40;99.90
31619;DHT22;18230;51.502;7.108;2022-09-17T04:23:58;11.40;99.90
31619;DHT22;18230;51.502;7.108;2022-09-17T04:28:59;11.40;99.90
31619;DHT22;18230;51.502;7.108;2022-09-17T04:34:02;11.40;99.90
31619;DHT22;18230;51.502;7.108;2022-09-17T04:39:03;11.50;99.90
31619;DHT22;18230;51.502;7.108;2022-09-17T04:44:04;11.40;99.90
31619;DHT22;18230;51.502;7.108;2022-09-17T04:49:05;11.50;99.90
31619;DHT22;18230;51.502;7.108;2022-09-17T04:54:07;11.50;99.90
31619;DHT22;18230;51.502;7.108;2022-09-17T04:59:07;11.60;99.90
31619;DHT22;18230;51.502;7.108;2022-09-17T05:04:09;11.50;99.90
31619;DHT22;18230;51.502;7.108;2022-09-17T05:09:13;11.60;99.90
31619;DHT22;18230;51.502;7.108;2022-09-17T05:14:14;11.50;99.90
31619;DHT22;18230;51.502;7.108;2022-09-17T05:19:15;11.50;99.90
31619;DHT22;18230;51.502;7.108;2022-09-17T05:24:15;11.50;99.90
31619;DHT22;18230;51.502;7.108;2022-09-17T05:29:16;11.50;99.90
31619;DHT22;18230;51.502;7.108;2022-09-17T05:34:17;11.50;99.90
31619;DHT22;18230;51.502;7.108;2022-09-17T05:39:18;11.60;99.90
31619;DHT22;18230;51.502;7.108;2022-09-17T05:44:20;11.70;99.90
31619;DHT22;18230;51.502;7.108;2022-09-17T05:49:21;11.80;99.90
31619;DHT22;18230;51.502;7.108;2022-09-17T05:54:22;11.90;99.90
31619;DHT22;18230;51.502;7.108;2022-09-17T05:59:23;12.00;99.90
31619;DHT22;18230;51.502;7.108;2022-09-17T06:04:24;12.10;99.90
31619;DHT22;18230;51.502;7.108;2022-09-17T06:09:24;12.10;99.90
31619;DHT22;18230;51.502;7.108;2022-09-17T06:14:26;12.00;99.90
31619;DHT22;18230;51.502;7.108;2022-09-17T06:19:27;11.90;99.90
31619;DHT22;18230;51.502;7.108;2022-09-17T06:24:28;11.90;99.90
31619;DHT22;18230;51.502;7.108;2022-09-17T06:29:29;11.80;99.90
31619;DHT22;18230;51.502;7.108;2022-09-17T06:34:29;11.80;99.90
31619;DHT22;18230;51.502;7.108;2022-09-17T06:39:30;11.80;99.90
31619;DHT22;18230;51.502;7.108;2022-09-17T06:44:31;11.70;99.90
31619;DHT22;18230;51.502;7.108;2022-09-17T06:49:32;11.80;99.90
31619;DHT22;18230;51.502;7.108;2022-09-17T06:54:32;11.70;99.90
31619;DHT22;18230;51.502;7.108;2022-09-17T06:59:33;11.70;99.90
31619;DHT22;18230;51.502;7.108;2022-09-17T07:04:33;11.70;99.90
31619;DHT22;18230;51.502;7.108;2022-09-17T07:09:36;11.60;99.90
31619;DHT22;18230;51.502;7.108;2022-09-17T07:14:36;11.60;99.90
31619;DHT22;18230;51.502;7.108;2022-09-17T07:19:37;11.60;99.90
31619;DHT22;18230;51.502;7.108;2022-09-17T07:24:38;11.90;99.90
31619;DHT22;18230;51.502;7.108;2022-09-17T07:29:39;12.40;99.90
31619;DHT22;18230;51.502;7.108;2022-09-17T07:34:40;13.00;99.90
31619;DHT22;18230;51.502;7.108;2022-09-17T07:39:41;13.30;99.90
31619;DHT22;18230;51.502;7.108;2022-09-17T07:44:42;13.20;99.90
31619;DHT22;18230;51.502;7.108;2022-09-17T07:49:43;13.40;99.90
31619;DHT22;18230;51.502;7.108;2022-09-17T07:54:44;13.70;99.90
31619;DHT22;18230;51.502;7.108;2022-09-17T07:59:45;13.60;99.90
31619;DHT22;18230;51.502;7.108;2022-09-17T08:04:45;13.40;99.90
31619;DHT22;18230;51.502;7.108;2022-09-17T08:09:48;13.40;99.90
31619;DHT22;18230;51.502;7.108;2022-09-17T08:14:49;13.40;99.90
31619;DHT22;18230;51.502;7.108;2022-09-17T08:19:50;13.60;99.90
31619;DHT22;18230;51.502;7.108;2022-09-17T08:24:51;13.80;99.90
31619;DHT22;18230;51.502;7.108;2022-09-17T08:29:52;14.10;99.90
31619;DHT22;18230;51.502;7.108;2022-09-17T08:34:52;14.20;99.90
31619;DHT22;18230;51.502;7.108;2022-09-17T08:39:54;14.30;99.90
31619;DHT22;18230;51.502;7.108;2022-09-17T08:44:57;14.40;99.90
31619;DHT22;18230;51.502;7.108;2022-09-17T08:50:04;14.50;99.90
31619;DHT22;18230;51.502;7.108;2022-09-17T09:00:23;14.80;99.90
31619;DHT22;18230;51.502;7.108;2022-09-17T09:10:55;14.90;99.90
31619;DHT22;18230;51.502;7.108;2022-09-17T09:16:01;14.70;99.90
31619;DHT22;18230;51.502;7.108;2022-09-17T09:21:23;15.10;99.90
31619;DHT22;18230;51.502;7.108;2022-09-17T09:32:23;15.40;99.90
31619;DHT22;18230;51.502;7.108;2022-09-17T09:37:30;15.30;99.90
31619;DHT22;18230;51.502;7.108;2022-09-17T09:42:33;15.20;99.90
31619;DHT22;18230;51.502;7.108;2022-09-17T09:48:05;15.20;99.90
31619;DHT22;18230;51.502;7.108;2022-09-17T09:53:39;15.20;99.90
31619;DHT22;18230;51.502;7.108;2022-09-17T09:58:42;15.60;99.90
31619;DHT22;18230;51.502;7.108;2022-09-17T10:03:43;15.70;99.90
31619;DHT22;18230;51.502;7.108;2022-09-17T10:14:24;15.40;99.90
31619;DHT22;18230;51.502;7.108;2022-09-17T10:19:26;15.40;99.90
31619;DHT22;18230;51.502;7.108;2022-09-17T10:24:29;15.60;99.90
31619;DHT22;18230;51.502;7.108;2022-09-17T10:29:32;15.90;99.90
31619;DHT22;18230;51.502;7.108;2022-09-17T10:34:35;16.00;99.90
31619;DHT22;18230;51.502;7.108;2022-09-17T10:39:37;16.50;99.90
31619;DHT22;18230;51.502;7.108;2022-09-17T10:44:55;16.40;99.90
31619;DHT22;18230;51.502;7.108;2022-09-17T10:50:20;15.60;99.90
31619;DHT22;18230;51.502;7.108;2022-09-17T11:17:58;14.40;99.90
31619;DHT22;18230;51.502;7.108;2022-09-17T11:39:21;13.40;99.90
31619;DHT22;18230;51.502;7.108;2022-09-17T11:44:30;13.40;99.90
31619;DHT22;18230;51.502;7.108;2022-09-17T11:49:39;13.70;99.90
31619;DHT22;18230;51.502;7.108;2022-09-17T11:55:15;13.80;99.90
31619;DHT22;18230;51.502;7.108;2022-09-17T12:00:18;13.70;99.90
31619;DHT22;18230;51.502;7.108;2022-09-17T12:10:34;14.40;99.90
31619;DHT22;18230;51.502;7.108;2022-09-17T12:15:39;14.70;99.90
31619;DHT22;18230;51.502;7.108;2022-09-17T12:20:45;15.10;99.90
31619;DHT22;18230;51.502;7.108;2022-09-17T12:25:55;15.10;99.90
31619;DHT22;18230;51.502;7.108;2022-09-17T12:31:07;15.30;99.90
31619;DHT22;18230;51.502;7.108;2022-09-17T12:36:46;15.20;99.90
31619;DHT22;18230;51.502;7.108;2022-09-17T12:42:13;15.20;99.90
31619;DHT22;18230;51.502;7.108;2022-09-17T13:03:38;15.30;99.90
31619;DHT22;18230;51.502;7.108;2022-09-17T13:09:06;15.30;99.90
31619;DHT22;18230;51.502;7.108;2022-09-17T13:14:19;15.60;99.90
31619;DHT22;18230;51.502;7.108;2022-09-17T13:24:32;16.20;99.90
31619;DHT22;18230;51.502;7.108;2022-09-17T13:30:00;16.30;99.90
31619;DHT22;18230;51.502;7.108;2022-09-17T13:40:31;16.00;99.90
31619;DHT22;18230;51.502;7.108;2022-09-17T13:56:40;14.50;99.90
31619;DHT22;18230;51.502;7.108;2022-09-17T14:17:53;14.40;99.90
31619;DHT22;18230;51.502;7.108;2022-09-17T14:23:01;14.70;99.90
31619;DHT22;18230;51.502;7.108;2022-09-17T14:33:29;14.80;99.90
31619;DHT22;18230;51.502;7.108;2022-09-17T14:38:32;15.20;99.90
31619;DHT22;18230;51.502;7.108;2022-09-17T14:48:52;16.10;99.90
31619;DHT22;18230;51.502;7.108;2022-09-17T14:54:08;16.20;99.90
31619;DHT22;18230;51.502;7.108;2022-09-17T14:59:55;16.00;99.90
31619;DHT22;18230;51.502;7.108;2022-09-17T15:04:56;16.30;99.90
31619;DHT22;18230;51.502;7.108;2022-09-17T15:10:11;16.70;99.90
31619;DHT22;18230;51.502;7.108;2022-09-17T15:15:19;16.70;99.90
31619;DHT22;18230;51.502;7.108;2022-09-17T15:20:23;16.70;99.90
31619;DHT22;18230;51.502;7.108;2022-09-17T15:25:28;16.90;99.90
31619;DHT22;18230;51.502;7.108;2022-09-17T15:30:29;16.70;99.90
31619;DHT22;18230;51.502;7.108;2022-09-17T15:35:31;16.50;99.90
31619;DHT22;18230;51.502;7.108;2022-09-17T15:40:38;16.10;99.90
31619;DHT22;18230;51.502;7.108;2022-09-17T15:45:40;15.90;99.90
31619;DHT22;18230;51.502;7.108;2022-09-17T15:50:55;15.60;99.90
31619;DHT22;18230;51.502;7.108;2022-09-17T15:56:03;15.30;99.90
31619;DHT22;18230;51.502;7.108;2022-09-17T16:11:22;14.90;99.90
31619;DHT22;18230;51.502;7.108;2022-09-17T16:16:33;14.60;99.90
31619;DHT22;18230;51.502;7.108;2022-09-17T16:21:34;14.40;99.90
31619;DHT22;18230;51.502;7.108;2022-09-17T16:26:36;14.10;99.90
31619;DHT22;18230;51.502;7.108;2022-09-17T16:31:37;13.90;99.90
31619;DHT22;18230;51.502;7.108;2022-09-17T16:36:38;13.90;99.90
31619;DHT22;18230;51.502;7.108;2022-09-17T16:41:39;13.80;99.90
31619;DHT22;18230;51.502;7.108;2022-09-17T16:46:40;14.00;99.90
31619;DHT22;18230;51.502;7.108;2022-09-17T16:51:41;14.10;99.90
31619;DHT22;18230;51.502;7.108;2022-09-17T16:56:42;14.20;99.90
31619;DHT22;18230;51.502;7.108;2022-09-17T17:01:43;14.50;99.90
31619;DHT22;18230;51.502;7.108;2022-09-17T17:06:43;14.60;99.90
31619;DHT22;18230;51.502;7.108;2022-09-17T17:11:44;14.70;99.90
31619;DHT22;18230;51.502;7.108;2022-09-17T17:16:45;14.60;99.90
31619;DHT22;18230;51.502;7.108;2022-09-17T17:21:48;14.40;99.90
31619;DHT22;18230;51.502;7.108;2022-09-17T17:26:53;14.30;99.90
31619;DHT22;18230;51.502;7.108;2022-09-17T17:32:01;14.10;99.90
31619;DHT22;18230;51.502;7.108;2022-09-17T17:37:05;13.90;99.90
31619;DHT22;18230;51.502;7.108;2022-09-17T17:42:08;13.70;99.90
31619;DHT22;18230;51.502;7.108;2022-09-17T17:47:09;13.60;99.90
31619;DHT22;18230;51.502;7.108;2022-09-17T17:52:11;13.30;99.90
31619;DHT22;18230;51.502;7.108;2022-09-17T17:57:11;13.30;99.90
31619;DHT22;18230;51.502;7.108;2022-09-17T18:02:12;13.30;99.90
31619;DHT22;18230;51.502;7.108;2022-09-17T18:07:16;13.30;99.90
31619;DHT22;18230;51.502;7.108;2022-09-17T18:12:17;13.30;99.90
31619;DHT22;18230;51.502;7.108;2022-09-17T18:17:17;13.30;99.90
31619;DHT22;18230;51.502;7.108;2022-09-17T18:22:18;13.20;99.90
